sensor_id;sensor_type;location;lat;lon;timestamp;temperature;humidity
49184;DHT22;35021;49.214;12.270;2023-07-31T00:01:18;22.80;54.40
49184;DHT22;35021;49.214;12.270;2023-07-31T00:03:46;22.80;54.40
49184;DHT22;35021;49.214;12.270;2023-07-31T00:06:13;22.80;54.40
49184;DHT22;35021;49.214;12.270;2023-07-31T00:08:40;22.80;54.40
49184;DHT22;35021;49.214;12.270;2023-07-31T00:11:07;22.80;54.40
49184;DHT22;35021;49.214;12.270;2023-07-31T00:13:34;22.80;54.40
49184;DHT22;35021;49.214;12.270;2023-07-31T00:16:01;22.70;54.30
49184;DHT22;35021;49.214;12.270;2023-07-31T00:18:28;22.70;54.30
49184;DHT22;35021;49.214;12.270;2023-07-31T00:20:55;22.70;54.30
49184;DHT22;35021;49.214;12.270;2023-07-31T00:23:21;22.70;54.30
49184;DHT22;35021;49.214;12.270;2023-07-31T00:25:48;22.80;54.20
49184;DHT22;35021;49.214;12.270;2023-07-31T00:28:15;22.80;54.20
49184;DHT22;35021;49.214;12.270;2023-07-31T00:30:42;22.80;54.20
49184;DHT22;35021;49.214;12.270;2023-07-31T00:33:09;22.80;54.20
49184;DHT22;35021;49.214;12.270;2023-07-31T00:35:36;22.80;54.10
49184;DHT22;35021;49.214;12.270;2023-07-31T00:38:03;22.80;54.00
49184;DHT22;35021;49.214;12.270;2023-07-31T00:40:34;22.80;54.00
49184;DHT22;35021;49.214;12.270;2023-07-31T00:43:01;22.80;53.90
49184;DHT22;35021;49.214;12.270;2023-07-31T00:45:29;22.80;53.90
49184;DHT22;35021;49.214;12.270;2023-07-31T00:47:56;22.70;53.80
49184;DHT22;35021;49.214;12.270;2023-07-31T00:50:24;22.70;53.80
49184;DHT22;35021;49.214;12.270;2023-07-31T00:52:52;22.70;53.80
49184;DHT22;35021;49.214;12.270;2023-07-31T00:55:19;22.70;53.80
49184;DHT22;35021;49.214;12.270;2023-07-31T00:57:46;22.70;53.70
49184;DHT22;35021;49.214;12.270;2023-07-31T01:00:13;22.70;53.70
49184;DHT22;35021;49.214;12.270;2023-07-31T01:02:40;22.70;53.70
49184;DHT22;35021;49.214;12.270;2023-07-31T01:05:07;22.60;53.60
49184;DHT22;35021;49.214;12.270;2023-07-31T01:07:57;22.70;53.60
49184;DHT22;35021;49.214;12.270;2023-07-31T01:10:36;22.70;53.60
49184;DHT22;35021;49.214;12.270;2023-07-31T01:13:04;22.70;53.50
49184;DHT22;35021;49.214;12.270;2023-07-31T01:15:31;22.70;53.40
49184;DHT22;35021;49.214;12.270;2023-07-31T01:17:58;22.70;53.40
49184;DHT22;35021;49.214;12.270;2023-07-31T01:20:26;22.70;53.40
49184;DHT22;35021;49.214;12.270;2023-07-31T01:23:31;22.70;53.30
49184;DHT22;35021;49.214;12.270;2023-07-31T01:28:56;22.70;53.20
49184;DHT22;35021;49.214;12.270;2023-07-31T01:31:25;22.70;53.20
49184;DHT22;35021;49.214;12.270;2023-07-31T01:33:57;22.70;53.10
49184;DHT22;35021;49.214;12.270;2023-07-31T01:36:25;22.70;53.10
49184;DHT22;35021;49.214;12.270;2023-07-31T01:38:52;22.70;53.00
49184;DHT22;35021;49.214;12.270;2023-07-31T01:41:19;22.70;53.00
49184;DHT22;35021;49.214;12.270;2023-07-31T01:43:46;22.70;53.80
49184;DHT22;35021;49.214;12.270;2023-07-31T01:46:13;22.70;53.10
49184;DHT22;35021;49.214;12.270;2023-07-31T01:48:40;22.60;53.10
49184;DHT22;35021;49.214;12.270;2023-07-31T01:51:07;22.60;53.10
49184;DHT22;35021;49.214;12.270;2023-07-31T01:53:34;22.60;53.10
49184;DHT22;35021;49.214;12.270;2023-07-31T01:56:01;22.60;53.10
49184;DHT22;35021;49.214;12.270;2023-07-31T01:58:27;22.60;53.20
49184;DHT22;35021;49.214;12.270;2023-07-31T02:00:54;22.60;53.20
49184;DHT22;35021;49.214;12.270;2023-07-31T02:03:22;22.60;53.20
49184;DHT22;35021;49.214;12.270;2023-07-31T02:05:50;22.50;53.10
49184;DHT22;35021;49.214;12.270;2023-07-31T02:08:17;22.50;53.80
49184;DHT22;35021;49.214;12.270;2023-07-31T02:10:45;22.60;53.00
49184;DHT22;35021;49.214;12.270;2023-07-31T02:13:12;22.60;53.00
49184;DHT22;35021;49.214;12.270;2023-07-31T02:15:39;22.60;53.00
49184;DHT22;35021;49.214;12.270;2023-07-31T02:18:06;22.60;52.90
49184;DHT22;35021;49.214;12.270;2023-07-31T02:20:34;22.60;52.90
49184;DHT22;35021;49.214;12.270;2023-07-31T02:23:02;22.60;52.90
49184;DHT22;35021;49.214;12.270;2023-07-31T02:25:29;22.60;52.80
49184;DHT22;35021;49.214;12.270;2023-07-31T02:27:56;22.60;52.80
49184;DHT22;35021;49.214;12.270;2023-07-31T02:30:23;22.60;52.70
49184;DHT22;35021;49.214;12.270;2023-07-31T02:32:50;22.60;52.70
49184;DHT22;35021;49.214;12.270;2023-07-31T02:35:17;22.60;52.70
49184;DHT22;35021;49.214;12.270;2023-07-31T02:37:45;22.60;52.60
49184;DHT22;35021;49.214;12.270;2023-07-31T02:40:12;22.60;52.60
49184;DHT22;35021;49.214;12.270;2023-07-31T02:42:39;22.60;52.60
49184;DHT22;35021;49.214;12.270;2023-07-31T02:45:06;22.70;52.60
49184;DHT22;35021;49.214;12.270;2023-07-31T02:47:33;22.60;52.50
49184;DHT22;35021;49.214;12.270;2023-07-31T02:50:01;22.60;52.50
49184;DHT22;35021;49.214;12.270;2023-07-31T02:52:28;22.60;52.40
49184;DHT22;35021;49.214;12.270;2023-07-31T02:54:55;22.60;52.40
49184;DHT22;35021;49.214;12.270;2023-07-31T02:57:22;22.60;52.40
49184;DHT22;35021;49.214;12.270;2023-07-31T02:59:49;22.60;52.40
49184;DHT22;35021;49.214;12.270;2023-07-31T03:02:15;22.60;52.40
49184;DHT22;35021;49.214;12.270;2023-07-31T03:04:42;22.60;52.30
49184;DHT22;35021;49.214;12.270;2023-07-31T03:07:09;22.60;52.30
49184;DHT22;35021;49.214;12.270;2023-07-31T03:09:36;22.60;52.30
49184;DHT22;35021;49.214;12.270;2023-07-31T03:12:03;22.60;52.30
49184;DHT22;35021;49.214;12.270;2023-07-31T03:14:30;22.60;52.30
49184;DHT22;35021;49.214;12.270;2023-07-31T03:16:57;22.60;52.30
49184;DHT22;35021;49.214;12.270;2023-07-31T03:19:24;22.60;52.40
49184;DHT22;35021;49.214;12.270;2023-07-31T03:21:50;22.60;52.40
49184;DHT22;35021;49.214;12.270;2023-07-31T03:24:17;22.60;52.40
49184;DHT22;35021;49.214;12.270;2023-07-31T03:26:44;22.60;52.60
49184;DHT22;35021;49.214;12.270;2023-07-31T03:29:11;22.60;52.70
49184;DHT22;35021;49.214;12.270;2023-07-31T03:31:38;22.50;52.70
49184;DHT22;35021;49.214;12.270;2023-07-31T03:34:05;22.50;52.80
49184;DHT22;35021;49.214;12.270;2023-07-31T03:36:32;22.50;52.80
49184;DHT22;35021;49.214;12.270;2023-07-31T03:38:59;22.40;52.80
49184;DHT22;35021;49.214;12.270;2023-07-31T03:41:26;22.50;52.70
49184;DHT22;35021;49.214;12.270;2023-07-31T03:43:52;22.50;52.70
49184;DHT22;35021;49.214;12.270;2023-07-31T03:46:19;22.60;52.60
49184;DHT22;35021;49.214;12.270;2023-07-31T03:48:46;22.60;52.50
49184;DHT22;35021;49.214;12.270;2023-07-31T03:51:13;22.70;52.40
49184;DHT22;35021;49.214;12.270;2023-07-31T03:53:40;22.80;52.30
49184;DHT22;35021;49.214;12.270;2023-07-31T03:56:07;22.90;52.10
49184;DHT22;35021;49.214;12.270;2023-07-31T03:58:34;22.90;52.00
49184;DHT22;35021;49.214;12.270;2023-07-31T04:01:03;23.00;52.30
49184;DHT22;35021;49.214;12.270;2023-07-31T04:03:30;23.10;51.70
49184;DHT22;35021;49.214;12.270;2023-07-31T04:05:57;23.10;51.50
49184;DHT22;35021;49.214;12.270;2023-07-31T04:08:24;23.20;51.50
49184;DHT22;35021;49.214;12.270;2023-07-31T04:10:51;23.30;51.50
49184;DHT22;35021;49.214;12.270;2023-07-31T04:13:17;23.30;51.40
49184;DHT22;35021;49.214;12.270;2023-07-31T04:15:51;23.30;51.30
49184;DHT22;35021;49.214;12.270;2023-07-31T04:18:18;23.40;51.40
49184;DHT22;35021;49.214;12.270;2023-07-31T04:20:44;23.40;51.40
49184;DHT22;35021;49.214;12.270;2023-07-31T04:23:11;23.30;51.40
49184;DHT22;35021;49.214;12.270;2023-07-31T04:25:38;23.30;51.40
49184;DHT22;35021;49.214;12.270;2023-07-31T04:28:05;23.20;51.50
49184;DHT22;35021;49.214;12.270;2023-07-31T04:30:35;23.20;51.60
49184;DHT22;35021;49.214;12.270;2023-07-31T04:33:03;23.20;51.60
49184;DHT22;35021;49.214;12.270;2023-07-31T04:35:30;23.20;51.60
49184;DHT22;35021;49.214;12.270;2023-07-31T04:37:57;23.10;51.50
49184;DHT22;35021;49.214;12.270;2023-07-31T04:40:24;23.20;51.50
49184;DHT22;35021;49.214;12.270;2023-07-31T04:42:50;23.30;51.40
49184;DHT22;35021;49.214;12.270;2023-07-31T04:45:17;23.30;51.30
49184;DHT22;35021;49.214;12.270;2023-07-31T04:47:47;23.40;51.20
49184;DHT22;35021;49.214;12.270;2023-07-31T04:50:14;23.40;51.20
49184;DHT22;35021;49.214;12.270;2023-07-31T04:52:42;23.50;51.20
49184;DHT22;35021;49.214;12.270;2023-07-31T04:55:09;23.50;51.10
49184;DHT22;35021;49.214;12.270;2023-07-31T04:57:35;23.50;51.10
49184;DHT22;35021;49.214;12.270;2023-07-31T05:00:02;23.50;51.20
49184;DHT22;35021;49.214;12.270;2023-07-31T05:02:30;23.50;51.20
49184;DHT22;35021;49.214;12.270;2023-07-31T05:04:58;23.50;51.30
49184;DHT22;35021;49.214;12.270;2023-07-31T05:07:24;23.50;51.40
49184;DHT22;35021;49.214;12.270;2023-07-31T05:09:51;23.40;51.40
49184;DHT22;35021;49.214;12.270;2023-07-31T05:12:18;23.40;51.50
49184;DHT22;35021;49.214;12.270;2023-07-31T05:14:45;23.40;51.50
49184;DHT22;35021;49.214;12.270;2023-07-31T05:17:12;23.40;51.50
49184;DHT22;35021;49.214;12.270;2023-07-31T05:19:39;23.40;51.40
49184;DHT22;35021;49.214;12.270;2023-07-31T05:22:10;23.40;51.40
49184;DHT22;35021;49.214;12.270;2023-07-31T05:24:40;23.50;51.30
49184;DHT22;35021;49.214;12.270;2023-07-31T05:27:07;23.60;51.20
49184;DHT22;35021;49.214;12.270;2023-07-31T05:29:43;23.70;51.20
49184;DHT22;35021;49.214;12.270;2023-07-31T05:32:10;23.70;51.10
49184;DHT22;35021;49.214;12.270;2023-07-31T05:34:37;23.70;51.00
49184;DHT22;35021;49.214;12.270;2023-07-31T05:37:08;23.70;50.90
49184;DHT22;35021;49.214;12.270;2023-07-31T05:39:35;23.80;50.90
49184;DHT22;35021;49.214;12.270;2023-07-31T05:42:03;23.80;50.90
49184;DHT22;35021;49.214;12.270;2023-07-31T05:44:29;23.80;51.00
49184;DHT22;35021;49.214;12.270;2023-07-31T05:47:04;23.70;51.00
49184;DHT22;35021;49.214;12.270;2023-07-31T05:49:36;23.70;51.10
49184;DHT22;35021;49.214;12.270;2023-07-31T05:52:23;23.70;51.20
49184;DHT22;35021;49.214;12.270;2023-07-31T05:54:50;23.70;51.20
49184;DHT22;35021;49.214;12.270;2023-07-31T05:57:18;23.70;51.20
49184;DHT22;35021;49.214;12.270;2023-07-31T05:59:45;23.70;51.10
49184;DHT22;35021;49.214;12.270;2023-07-31T06:02:11;23.80;51.00
49184;DHT22;35021;49.214;12.270;2023-07-31T06:04:38;23.80;50.90
49184;DHT22;35021;49.214;12.270;2023-07-31T06:07:06;23.90;50.80
49184;DHT22;35021;49.214;12.270;2023-07-31T06:09:33;23.90;50.60
49184;DHT22;35021;49.214;12.270;2023-07-31T06:12:00;24.00;50.60
49184;DHT22;35021;49.214;12.270;2023-07-31T06:14:27;24.00;50.50
49184;DHT22;35021;49.214;12.270;2023-07-31T06:16:54;24.00;50.50
49184;DHT22;35021;49.214;12.270;2023-07-31T06:19:21;24.00;50.50
49184;DHT22;35021;49.214;12.270;2023-07-31T06:21:48;24.00;50.70
49184;DHT22;35021;49.214;12.270;2023-07-31T06:24:15;24.00;50.80
49184;DHT22;35021;49.214;12.270;2023-07-31T06:26:45;23.90;50.90
49184;DHT22;35021;49.214;12.270;2023-07-31T06:29:12;24.00;51.10
49184;DHT22;35021;49.214;12.270;2023-07-31T06:31:40;23.90;51.10
49184;DHT22;35021;49.214;12.270;2023-07-31T06:34:08;23.80;51.30
49184;DHT22;35021;49.214;12.270;2023-07-31T06:36:34;23.80;51.40
49184;DHT22;35021;49.214;12.270;2023-07-31T06:39:01;23.80;51.50
49184;DHT22;35021;49.214;12.270;2023-07-31T06:41:28;23.80;51.70
49184;DHT22;35021;49.214;12.270;2023-07-31T06:43:55;23.70;51.70
49184;DHT22;35021;49.214;12.270;2023-07-31T06:46:22;23.70;52.00
49184;DHT22;35021;49.214;12.270;2023-07-31T06:48:49;23.70;52.20
49184;DHT22;35021;49.214;12.270;2023-07-31T06:51:16;23.60;52.20
49184;DHT22;35021;49.214;12.270;2023-07-31T06:53:43;23.60;52.40
49184;DHT22;35021;49.214;12.270;2023-07-31T06:56:11;23.60;52.50
49184;DHT22;35021;49.214;12.270;2023-07-31T06:58:39;23.60;52.60
49184;DHT22;35021;49.214;12.270;2023-07-31T07:01:06;23.50;52.70
49184;DHT22;35021;49.214;12.270;2023-07-31T07:03:33;23.50;52.80
49184;DHT22;35021;49.214;12.270;2023-07-31T07:06:00;23.50;52.90
49184;DHT22;35021;49.214;12.270;2023-07-31T07:08:27;23.50;53.00
49184;DHT22;35021;49.214;12.270;2023-07-31T07:10:54;23.50;53.10
49184;DHT22;35021;49.214;12.270;2023-07-31T07:13:21;23.50;53.30
49184;DHT22;35021;49.214;12.270;2023-07-31T07:15:49;23.50;53.50
49184;DHT22;35021;49.214;12.270;2023-07-31T07:18:16;23.40;53.60
49184;DHT22;35021;49.214;12.270;2023-07-31T07:20:51;23.40;53.70
49184;DHT22;35021;49.214;12.270;2023-07-31T07:23:18;23.40;53.80
49184;DHT22;35021;49.214;12.270;2023-07-31T07:25:46;23.40;53.90
49184;DHT22;35021;49.214;12.270;2023-07-31T07:28:13;23.40;54.00
49184;DHT22;35021;49.214;12.270;2023-07-31T07:30:40;23.40;54.10
49184;DHT22;35021;49.214;12.270;2023-07-31T07:33:08;23.40;54.20
49184;DHT22;35021;49.214;12.270;2023-07-31T07:35:35;23.40;54.30
49184;DHT22;35021;49.214;12.270;2023-07-31T07:38:03;23.30;54.40
49184;DHT22;35021;49.214;12.270;2023-07-31T07:40:30;23.30;54.40
49184;DHT22;35021;49.214;12.270;2023-07-31T07:42:57;23.30;54.50
49184;DHT22;35021;49.214;12.270;2023-07-31T07:45:24;23.30;54.50
49184;DHT22;35021;49.214;12.270;2023-07-31T07:47:51;23.30;54.60
49184;DHT22;35021;49.214;12.270;2023-07-31T07:50:18;23.30;54.60
49184;DHT22;35021;49.214;12.270;2023-07-31T07:52:45;23.30;54.70
49184;DHT22;35021;49.214;12.270;2023-07-31T07:55:12;23.30;54.70
49184;DHT22;35021;49.214;12.270;2023-07-31T07:57:39;23.30;54.70
49184;DHT22;35021;49.214;12.270;2023-07-31T08:00:06;23.30;54.80
49184;DHT22;35021;49.214;12.270;2023-07-31T08:02:33;23.30;54.90
49184;DHT22;35021;49.214;12.270;2023-07-31T08:05:00;23.30;54.90
49184;DHT22;35021;49.214;12.270;2023-07-31T08:07:27;23.30;55.00
49184;DHT22;35021;49.214;12.270;2023-07-31T08:09:54;23.20;55.00
49184;DHT22;35021;49.214;12.270;2023-07-31T08:12:21;23.20;55.10
49184;DHT22;35021;49.214;12.270;2023-07-31T08:14:48;23.20;55.10
49184;DHT22;35021;49.214;12.270;2023-07-31T08:17:14;23.20;55.90
49184;DHT22;35021;49.214;12.270;2023-07-31T08:19:42;23.20;55.20
49184;DHT22;35021;49.214;12.270;2023-07-31T08:22:10;23.20;55.20
49184;DHT22;35021;49.214;12.270;2023-07-31T08:24:37;23.20;55.20
49184;DHT22;35021;49.214;12.270;2023-07-31T08:27:06;23.10;55.20
49184;DHT22;35021;49.214;12.270;2023-07-31T08:29:33;23.10;55.20
49184;DHT22;35021;49.214;12.270;2023-07-31T08:32:00;23.20;55.10
49184;DHT22;35021;49.214;12.270;2023-07-31T08:34:26;23.20;55.10
49184;DHT22;35021;49.214;12.270;2023-07-31T08:36:53;23.20;55.10
49184;DHT22;35021;49.214;12.270;2023-07-31T08:39:20;23.20;55.20
49184;DHT22;35021;49.214;12.270;2023-07-31T08:41:50;23.20;55.10
49184;DHT22;35021;49.214;12.270;2023-07-31T08:44:17;23.20;55.00
49184;DHT22;35021;49.214;12.270;2023-07-31T08:46:46;23.30;55.00
49184;DHT22;35021;49.214;12.270;2023-07-31T08:49:14;23.30;54.80
49184;DHT22;35021;49.214;12.270;2023-07-31T08:51:42;23.40;54.60
49184;DHT22;35021;49.214;12.270;2023-07-31T08:54:09;23.40;54.30
49184;DHT22;35021;49.214;12.270;2023-07-31T08:56:36;23.50;54.00
49184;DHT22;35021;49.214;12.270;2023-07-31T08:59:04;23.70;53.70
49184;DHT22;35021;49.214;12.270;2023-07-31T09:01:35;23.70;53.40
49184;DHT22;35021;49.214;12.270;2023-07-31T09:04:04;23.80;53.10
49184;DHT22;35021;49.214;12.270;2023-07-31T09:06:33;23.90;52.70
49184;DHT22;35021;49.214;12.270;2023-07-31T09:09:01;24.00;52.60
49184;DHT22;35021;49.214;12.270;2023-07-31T09:11:28;24.10;52.40
49184;DHT22;35021;49.214;12.270;2023-07-31T09:13:57;24.20;52.30
49184;DHT22;35021;49.214;12.270;2023-07-31T09:16:28;24.20;52.10
49184;DHT22;35021;49.214;12.270;2023-07-31T09:18:58;24.30;52.00
49184;DHT22;35021;49.214;12.270;2023-07-31T09:21:25;24.40;51.80
49184;DHT22;35021;49.214;12.270;2023-07-31T09:23:52;24.50;51.70
49184;DHT22;35021;49.214;12.270;2023-07-31T09:26:30;24.50;51.50
49184;DHT22;35021;49.214;12.270;2023-07-31T09:28:58;24.60;51.40
49184;DHT22;35021;49.214;12.270;2023-07-31T09:31:40;24.60;51.20
49184;DHT22;35021;49.214;12.270;2023-07-31T09:34:08;24.70;51.10
49184;DHT22;35021;49.214;12.270;2023-07-31T09:36:46;24.70;51.10
49184;DHT22;35021;49.214;12.270;2023-07-31T09:39:14;24.80;51.10
49184;DHT22;35021;49.214;12.270;2023-07-31T09:41:56;24.70;51.10
49184;DHT22;35021;49.214;12.270;2023-07-31T09:44:37;24.70;51.30
49184;DHT22;35021;49.214;12.270;2023-07-31T09:47:06;24.70;51.40
49184;DHT22;35021;49.214;12.270;2023-07-31T09:49:33;24.70;51.50
49184;DHT22;35021;49.214;12.270;2023-07-31T09:52:00;24.70;51.60
49184;DHT22;35021;49.214;12.270;2023-07-31T09:54:27;24.70;51.70
49184;DHT22;35021;49.214;12.270;2023-07-31T09:56:56;24.60;51.70
49184;DHT22;35021;49.214;12.270;2023-07-31T09:59:25;24.70;51.90
49184;DHT22;35021;49.214;12.270;2023-07-31T10:01:53;24.60;51.90
49184;DHT22;35021;49.214;12.270;2023-07-31T10:04:27;24.60;51.90
49184;DHT22;35021;49.214;12.270;2023-07-31T10:06:55;24.60;52.00
49184;DHT22;35021;49.214;12.270;2023-07-31T10:09:24;24.60;52.10
49184;DHT22;35021;49.214;12.270;2023-07-31T10:11:56;24.60;52.20
49184;DHT22;35021;49.214;12.270;2023-07-31T10:14:26;24.50;52.20
49184;DHT22;35021;49.214;12.270;2023-07-31T10:16:54;24.50;52.20
49184;DHT22;35021;49.214;12.270;2023-07-31T10:19:22;24.50;52.30
49184;DHT22;35021;49.214;12.270;2023-07-31T10:21:49;24.50;52.30
49184;DHT22;35021;49.214;12.270;2023-07-31T10:24:17;24.50;52.30
49184;DHT22;35021;49.214;12.270;2023-07-31T10:26:45;24.50;52.30
49184;DHT22;35021;49.214;12.270;2023-07-31T10:29:15;24.50;52.20
49184;DHT22;35021;49.214;12.270;2023-07-31T10:31:43;24.50;52.20
49184;DHT22;35021;49.214;12.270;2023-07-31T10:34:11;24.50;52.10
49184;DHT22;35021;49.214;12.270;2023-07-31T10:36:38;24.50;52.10
49184;DHT22;35021;49.214;12.270;2023-07-31T10:39:35;24.50;52.00
49184;DHT22;35021;49.214;12.270;2023-07-31T10:42:11;24.50;52.10
49184;DHT22;35021;49.214;12.270;2023-07-31T10:44:46;24.50;52.10
49184;DHT22;35021;49.214;12.270;2023-07-31T10:47:15;24.50;52.20
49184;DHT22;35021;49.214;12.270;2023-07-31T10:49:46;24.50;52.30
49184;DHT22;35021;49.214;12.270;2023-07-31T10:52:13;24.40;52.30
49184;DHT22;35021;49.214;12.270;2023-07-31T10:57:54;24.40;52.40
49184;DHT22;35021;49.214;12.270;2023-07-31T11:00:29;24.40;52.40
49184;DHT22;35021;49.214;12.270;2023-07-31T11:03:07;24.40;52.50
49184;DHT22;35021;49.214;12.270;2023-07-31T11:08:32;24.40;52.60
49184;DHT22;35021;49.214;12.270;2023-07-31T11:13:31;24.30;52.60
49184;DHT22;35021;49.214;12.270;2023-07-31T11:15:59;24.30;52.60
49184;DHT22;35021;49.214;12.270;2023-07-31T11:18:33;24.30;52.60
49184;DHT22;35021;49.214;12.270;2023-07-31T11:21:00;24.30;52.70
49184;DHT22;35021;49.214;12.270;2023-07-31T11:23:30;24.20;52.60
49184;DHT22;35021;49.214;12.270;2023-07-31T11:26:01;24.20;52.70
49184;DHT22;35021;49.214;12.270;2023-07-31T11:28:42;24.20;52.60
49184;DHT22;35021;49.214;12.270;2023-07-31T11:31:21;24.20;52.60
49184;DHT22;35021;49.214;12.270;2023-07-31T11:34:10;24.20;52.60
49184;DHT22;35021;49.214;12.270;2023-07-31T11:36:37;24.20;52.60
49184;DHT22;35021;49.214;12.270;2023-07-31T11:39:24;24.20;52.60
49184;DHT22;35021;49.214;12.270;2023-07-31T11:41:52;24.20;52.60
49184;DHT22;35021;49.214;12.270;2023-07-31T11:44:31;24.20;52.60
49184;DHT22;35021;49.214;12.270;2023-07-31T11:47:09;24.20;52.60
49184;DHT22;35021;49.214;12.270;2023-07-31T11:49:36;24.20;52.60
49184;DHT22;35021;49.214;12.270;2023-07-31T11:52:04;24.10;52.70
49184;DHT22;35021;49.214;12.270;2023-07-31T11:54:31;24.10;52.70
49184;DHT22;35021;49.214;12.270;2023-07-31T11:56:58;24.20;52.70
49184;DHT22;35021;49.214;12.270;2023-07-31T11:59:27;24.20;52.70
49184;DHT22;35021;49.214;12.270;2023-07-31T12:01:54;24.20;52.70
49184;DHT22;35021;49.214;12.270;2023-07-31T12:04:21;24.20;52.80
49184;DHT22;35021;49.214;12.270;2023-07-31T12:06:48;24.20;52.70
49184;DHT22;35021;49.214;12.270;2023-07-31T12:09:20;24.20;52.60
49184;DHT22;35021;49.214;12.270;2023-07-31T12:11:47;24.20;52.70
49184;DHT22;35021;49.214;12.270;2023-07-31T12:14:23;24.20;52.70
49184;DHT22;35021;49.214;12.270;2023-07-31T12:16:59;24.20;52.70
49184;DHT22;35021;49.214;12.270;2023-07-31T12:19:26;24.20;52.60
49184;DHT22;35021;49.214;12.270;2023-07-31T12:21:59;24.20;52.60
49184;DHT22;35021;49.214;12.270;2023-07-31T12:24:27;24.20;52.70
49184;DHT22;35021;49.214;12.270;2023-07-31T12:26:54;24.20;52.70
49184;DHT22;35021;49.214;12.270;2023-07-31T12:29:21;24.20;52.80
49184;DHT22;35021;49.214;12.270;2023-07-31T12:31:48;24.20;52.80
49184;DHT22;35021;49.214;12.270;2023-07-31T12:34:20;24.20;52.90
49184;DHT22;35021;49.214;12.270;2023-07-31T12:36:48;24.20;52.90
49184;DHT22;35021;49.214;12.270;2023-07-31T12:39:17;24.20;52.90
49184;DHT22;35021;49.214;12.270;2023-07-31T12:41:47;24.20;52.80
49184;DHT22;35021;49.214;12.270;2023-07-31T12:44:14;24.20;52.80
49184;DHT22;35021;49.214;12.270;2023-07-31T12:46:40;24.20;52.80
49184;DHT22;35021;49.214;12.270;2023-07-31T12:49:08;24.20;52.80
49184;DHT22;35021;49.214;12.270;2023-07-31T12:51:35;24.20;52.80
49184;DHT22;35021;49.214;12.270;2023-07-31T12:54:02;24.20;52.80
49184;DHT22;35021;49.214;12.270;2023-07-31T12:56:29;24.20;52.80
49184;DHT22;35021;49.214;12.270;2023-07-31T12:58:56;24.20;52.70
49184;DHT22;35021;49.214;12.270;2023-07-31T13:01:23;24.20;52.80
49184;DHT22;35021;49.214;12.270;2023-07-31T13:03:50;24.20;52.80
49184;DHT22;35021;49.214;12.270;2023-07-31T13:06:17;24.20;53.50
49184;DHT22;35021;49.214;12.270;2023-07-31T13:08:44;24.20;52.80
49184;DHT22;35021;49.214;12.270;2023-07-31T13:11:10;24.20;52.80
49184;DHT22;35021;49.214;12.270;2023-07-31T13:13:37;24.20;52.70
49184;DHT22;35021;49.214;12.270;2023-07-31T13:16:04;24.20;52.70
49184;DHT22;35021;49.214;12.270;2023-07-31T13:18:31;24.20;52.80
49184;DHT22;35021;49.214;12.270;2023-07-31T13:20:58;24.20;52.80
49184;DHT22;35021;49.214;12.270;2023-07-31T13:23:25;24.20;52.80
49184;DHT22;35021;49.214;12.270;2023-07-31T13:25:51;24.20;52.70
49184;DHT22;35021;49.214;12.270;2023-07-31T13:28:18;24.20;52.70
49184;DHT22;35021;49.214;12.270;2023-07-31T13:30:45;24.20;52.60
49184;DHT22;35021;49.214;12.270;2023-07-31T13:33:12;24.20;52.50
49184;DHT22;35021;49.214;12.270;2023-07-31T13:35:59;24.20;52.60
49184;DHT22;35021;49.214;12.270;2023-07-31T13:38:26;24.30;52.60
49184;DHT22;35021;49.214;12.270;2023-07-31T13:40:53;24.20;52.50
49184;DHT22;35021;49.214;12.270;2023-07-31T13:43:20;24.30;52.60
49184;DHT22;35021;49.214;12.270;2023-07-31T13:45:47;24.30;52.50
49184;DHT22;35021;49.214;12.270;2023-07-31T13:48:13;24.30;53.20
49184;DHT22;35021;49.214;12.270;2023-07-31T13:50:49;24.30;52.60
49184;DHT22;35021;49.214;12.270;2023-07-31T13:53:41;24.20;52.60
49184;DHT22;35021;49.214;12.270;2023-07-31T13:56:08;24.30;52.70
49184;DHT22;35021;49.214;12.270;2023-07-31T13:58:35;24.20;52.70
49184;DHT22;35021;49.214;12.270;2023-07-31T14:01:02;24.20;52.80
49184;DHT22;35021;49.214;12.270;2023-07-31T14:03:30;24.20;52.90
49184;DHT22;35021;49.214;12.270;2023-07-31T14:05:57;24.20;53.00
49184;DHT22;35021;49.214;12.270;2023-07-31T14:08:24;24.20;53.00
49184;DHT22;35021;49.214;12.270;2023-07-31T14:10:51;24.20;53.10
49184;DHT22;35021;49.214;12.270;2023-07-31T14:13:18;24.20;53.10
49184;DHT22;35021;49.214;12.270;2023-07-31T14:15:45;24.20;53.10
49184;DHT22;35021;49.214;12.270;2023-07-31T14:18:12;24.20;53.10
49184;DHT22;35021;49.214;12.270;2023-07-31T14:20:39;24.20;53.10
49184;DHT22;35021;49.214;12.270;2023-07-31T14:23:06;24.20;53.10
49184;DHT22;35021;49.214;12.270;2023-07-31T14:25:33;24.20;53.20
49184;DHT22;35021;49.214;12.270;2023-07-31T14:28:00;24.20;53.10
49184;DHT22;35021;49.214;12.270;2023-07-31T14:30:27;24.20;53.20
49184;DHT22;35021;49.214;12.270;2023-07-31T14:32:54;24.10;53.20
49184;DHT22;35021;49.214;12.270;2023-07-31T14:35:21;24.10;53.30
49184;DHT22;35021;49.214;12.270;2023-07-31T14:37:48;24.10;53.30
49184;DHT22;35021;49.214;12.270;2023-07-31T14:40:15;24.10;53.30
49184;DHT22;35021;49.214;12.270;2023-07-31T14:42:42;24.10;53.30
49184;DHT22;35021;49.214;12.270;2023-07-31T14:45:09;24.10;53.40
49184;DHT22;35021;49.214;12.270;2023-07-31T14:47:37;24.10;53.40
49184;DHT22;35021;49.214;12.270;2023-07-31T14:50:04;24.20;53.30
49184;DHT22;35021;49.214;12.270;2023-07-31T14:52:32;24.20;53.30
49184;DHT22;35021;49.214;12.270;2023-07-31T14:54:59;24.20;53.20
49184;DHT22;35021;49.214;12.270;2023-07-31T14:57:26;24.20;53.20
49184;DHT22;35021;49.214;12.270;2023-07-31T14:59:54;24.20;53.20
49184;DHT22;35021;49.214;12.270;2023-07-31T15:02:22;24.20;53.20
49184;DHT22;35021;49.214;12.270;2023-07-31T15:04:49;24.20;53.10
49184;DHT22;35021;49.214;12.270;2023-07-31T15:07:17;24.30;53.10
49184;DHT22;35021;49.214;12.270;2023-07-31T15:09:44;24.30;53.00
49184;DHT22;35021;49.214;12.270;2023-07-31T15:12:12;24.30;52.90
49184;DHT22;35021;49.214;12.270;2023-07-31T15:14:40;24.30;52.90
49184;DHT22;35021;49.214;12.270;2023-07-31T15:17:07;24.30;52.80
49184;DHT22;35021;49.214;12.270;2023-07-31T15:19:34;24.30;52.80
49184;DHT22;35021;49.214;12.270;2023-07-31T15:22:04;24.40;52.80
49184;DHT22;35021;49.214;12.270;2023-07-31T15:24:31;24.40;52.80
49184;DHT22;35021;49.214;12.270;2023-07-31T15:26:59;24.40;52.80
49184;DHT22;35021;49.214;12.270;2023-07-31T15:29:29;24.40;52.80
49184;DHT22;35021;49.214;12.270;2023-07-31T15:31:56;24.40;53.10
49184;DHT22;35021;49.214;12.270;2023-07-31T15:34:23;24.40;52.70